Main page
METAR-TAF:

METAR-TAF

Airports :

Ibaraki Airport

Hyakuri, Japan

latitude: 36-11N, longitude: 140-25E, elevation: 32 m

Current weather observation

The report was made 24 minutes ago, at 23:00 UTC
Wind 5 kt from the North
Temperature 2°C
Humidity 69%
Pressure 1027 hPa
Visibility 10 km or more
Few clouds at a height of 3000 ft

METAR: RJAH 042300Z 36005KT 9999 FEW030 02/M03 Q1027

Time: 08:24 (23:24 UTC)

Forecast

The report was made 6 hours and 19 minutes ago, at 17:05 UTC
Forecast valid from 04 at 18 UTC to 06 at 00 UTC
Wind 6 kt from the North/Northeast
Visibility 10 km or more
Few clouds at a height of 3000 ft
Becoming
from 05 at 04 UTC to 05 at 06 UTC
Wind 4 kt from the East/Southeast
Becoming
from 05 at 09 UTC to 05 at 12 UTC
Wind 5 kt from the North

TAF: RJAH 041705Z 0418/0600 02006KT 9999 FEW030 BECMG 0504/0506 12004KT BECMG 0509/0512 01005KT

Weather observations and forecasts of more than 4000 airports (METAR and TAF reports).

The available stations are represented by yellow and red dots on the map.

Hover mouse over dot to see the name of the station.

Then click to see weather observations and forecasts.

To change the map : click on the green buttons with a black cross to zoom in, on the green button with a dash to zoom out, or on the green arrows for adjacent maps.


METAR-TAF: